Time;durP1;ratioP1;P1;durP2;ratioP2;P2;SDS_P1;SDS_P2;PMS_P1;PMS_P2;Temp;Humidity;BMP_temperature;BMP_pressure;BME280_temperature;BME280_humidity;BME280_pressure;Samples;Min_cycle;Max_cycle;Signal;HPM_P1;HPM_P2
2022/07/06 03:43:41;;;;;;;12.40;11.90;;;16.90;99.90;;;;;;5704278;23;20501;-72
2022/07/06 03:46:08;;;;;;;13.97;13.27;;;16.90;99.90;;;;;;5008748;28;20454;-72
2022/07/06 03:48:35;;;;;;;13.20;12.50;;;16.90;99.90;;;;;;5010422;28;20565;-73
2022/07/06 03:51:01;;;;;;;13.27;12.50;;;16.80;99.90;;;;;;5010294;28;20446;-74
2022/07/06 03:53:28;;;;;;;14.13;13.40;;;16.80;99.90;;;;;;5010119;28;20814;-73
2022/07/06 03:58:40;;;;;;;14.97;13.60;;;16.70;99.90;;;;;;5009269;28;20469;-73
2022/07/06 04:01:07;;;;;;;13.90;12.93;;;16.70;99.90;;;;;;4991031;28;20573;-73
2022/07/06 04:03:34;;;;;;;13.10;12.50;;;16.60;99.90;;;;;;4991066;28;20975;-72
2022/07/06 04:06:01;;;;;;;12.40;11.77;;;16.60;99.90;;;;;;5001669;28;20474;-73
2022/07/06 04:08:27;;;;;;;13.90;13.20;;;16.70;99.90;;;;;;4990534;28;20462;-72
2022/07/06 04:10:54;;;;;;;13.87;13.10;;;16.70;99.90;;;;;;4990733;28;20446;-72
2022/07/06 04:13:21;;;;;;;14.10;13.30;;;16.70;99.90;;;;;;4990619;28;20455;-73
2022/07/06 04:15:49;;;;;;;14.40;13.70;;;16.80;99.90;;;;;;4990567;28;20936;-73
2022/07/06 04:18:16;;;;;;;14.20;13.40;;;16.90;99.90;;;;;;4990680;28;20717;-73
2022/07/06 04:20:42;;;;;;;13.33;12.60;;;16.90;99.90;;;;;;4990561;28;20506;-75
2022/07/06 04:23:09;;;;;;;15.10;14.07;;;17.00;99.90;;;;;;4990738;28;20455;-73
2022/07/06 04:25:36;;;;;;;14.33;13.53;;;17.10;99.90;;;;;;4990535;28;20451;-73
2022/07/06 04:28:03;;;;;;;14.80;14.00;;;17.10;99.90;;;;;;4990447;28;20447;-73
2022/07/06 04:30:30;;;;;;;14.20;13.50;;;17.30;99.90;;;;;;4990591;28;20525;-73
2022/07/06 04:32:58;;;;;;;14.23;13.33;;;17.70;99.90;;;;;;4990702;28;20463;-74
2022/07/06 04:35:25;;;;;;;15.03;14.23;;;18.10;99.90;;;;;;4990156;28;20459;-73
2022/07/06 04:37:52;;;;;;;14.70;13.70;;;18.50;99.90;;;;;;4990563;28;20470;-74
2022/07/06 04:40:18;;;;;;;13.90;13.20;;;18.80;99.90;;;;;;4990245;28;20474;-73
2022/07/06 04:42:45;;;;;;;14.80;13.90;;;19.20;99.90;;;;;;4990237;28;20474;-74
2022/07/06 04:45:12;;;;;;;14.83;14.03;;;19.50;99.90;;;;;;4989814;28;20505;-75
2022/07/06 04:47:39;;;;;;;13.93;13.33;;;19.70;99.90;;;;;;4990358;28;20462;-75
2022/07/06 04:50:08;;;;;;;14.60;13.67;;;20.10;99.90;;;;;;4990369;28;20542;-74
2022/07/06 04:52:35;;;;;;;14.63;13.63;;;20.50;99.90;;;;;;4990348;28;20481;-75
2022/07/06 04:55:01;;;;;;;15.57;14.57;;;20.60;99.60;;;;;;4990304;28;20795;-75
2022/07/06 04:57:29;;;;;;;14.53;13.93;;;20.80;99.20;;;;;;4990060;28;20930;-75
2022/07/06 04:59:56;;;;;;;14.87;13.43;;;20.80;99.50;;;;;;4989892;28;20462;-74
2022/07/06 05:02:23;;;;;;;14.43;13.73;;;21.00;98.60;;;;;;4990274;28;20461;-75
2022/07/06 05:04:49;;;;;;;13.90;13.23;;;21.10;98.30;;;;;;4990172;28;20458;-75
2022/07/06 05:07:18;;;;;;;14.30;13.53;;;21.40;97.80;;;;;;5001129;28;20785;-75
2022/07/06 05:09:45;;;;;;;15.40;14.60;;;21.30;97.60;;;;;;4990070;28;20455;-75
2022/07/06 05:12:12;;;;;;;14.90;14.00;;;21.60;97.60;;;;;;4989727;28;20477;-75
2022/07/06 05:14:39;;;;;;;14.60;13.70;;;21.70;97.20;;;;;;4990233;28;20455;-74
2022/07/06 05:17:05;;;;;;;14.63;13.57;;;22.10;96.60;;;;;;4990244;28;20451;-75
2022/07/06 05:19:32;;;;;;;14.23;13.50;;;21.90;96.20;;;;;;4991515;28;20450;-75
2022/07/06 05:21:59;;;;;;;15.93;14.77;;;21.70;96.50;;;;;;4993442;28;21011;-75
2022/07/06 05:24:27;;;;;;;14.30;13.40;;;21.60;96.90;;;;;;4993785;28;20450;-75
2022/07/06 05:26:54;;;;;;;14.63;13.83;;;21.70;96.80;;;;;;4993920;28;20936;-74
2022/07/06 05:29:20;;;;;;;15.13;14.43;;;21.80;96.60;;;;;;4993412;28;20840;-74
2022/07/06 05:31:47;;;;;;;15.13;14.10;;;21.90;96.40;;;;;;4993418;28;20447;-73
2022/07/06 05:34:14;;;;;;;14.83;14.03;;;21.90;96.00;;;;;;4993689;28;20454;-76
2022/07/06 05:36:40;;;;;;;13.90;13.20;;;21.70;96.10;;;;;;4993659;28;20458;-74
2022/07/06 05:39:07;;;;;;;14.33;13.73;;;21.90;95.80;;;;;;4993753;28;20461;-73
2022/07/06 05:41:35;;;;;;;14.40;13.60;;;21.90;95.40;;;;;;4993690;28;20490;-74
2022/07/06 05:44:02;;;;;;;15.03;14.03;;;21.70;95.40;;;;;;4993399;28;20490;-74
2022/07/06 05:46:29;;;;;;;16.27;14.57;;;21.80;96.20;;;;;;4993515;28;20451;-74
2022/07/06 05:51:40;;;;;;;15.10;14.20;;;22.40;95.30;;;;;;4993765;28;20779;-77
2022/07/06 05:54:06;;;;;;;14.60;13.80;;;22.70;94.40;;;;;;4994109;28;20457;-75
2022/07/06 05:56:34;;;;;;;15.13;13.90;;;22.80;93.50;;;;;;4993059;28;20455;-77
2022/07/06 05:59:01;;;;;;;14.30;13.37;;;22.90;93.50;;;;;;4993220;28;20451;-75
2022/07/06 06:01:28;;;;;;;13.70;13.00;;;23.00;93.40;;;;;;4993147;28;20486;-74
2022/07/06 06:03:54;;;;;;;15.13;14.23;;;23.30;92.70;;;;;;4993504;28;20454;-70
2022/07/06 06:06:21;;;;;;;14.80;14.10;;;23.40;91.90;;;;;;4993806;28;20912;-70
2022/07/06 06:08:48;;;;;;;14.00;13.40;;;23.60;91.70;;;;;;5006902;28;20469;-74
2022/07/06 06:11:15;;;;;;;14.00;13.20;;;23.90;91.30;;;;;;5013036;28;20869;-73
2022/07/06 06:13:43;;;;;;;14.27;13.30;;;24.30;90.00;;;;;;5012846;28;20445;-71
2022/07/06 06:16:09;;;;;;;14.33;13.70;;;24.30;90.10;;;;;;5012711;28;20461;-73
2022/07/06 06:18:36;;;;;;;14.90;14.20;;;24.50;89.20;;;;;;5011082;28;20442;-72
2022/07/06 06:21:03;;;;;;;15.07;14.23;;;24.50;87.80;;;;;;5011826;28;21018;-72
2022/07/06 06:23:30;;;;;;;14.70;13.87;;;24.10;88.40;;;;;;5012605;28;20453;-72
2022/07/06 06:25:57;;;;;;;15.10;14.07;;;23.80;90.00;;;;;;5012168;28;20633;-72
2022/07/06 06:28:23;;;;;;;13.87;13.07;;;24.00;89.60;;;;;;5011272;28;20469;-73
2022/07/06 06:30:51;;;;;;;14.00;13.40;;;24.50;88.90;;;;;;5011438;28;20457;-77
2022/07/06 06:33:20;;;;;;;14.07;13.00;;;24.90;86.90;;;;;;5011694;28;20456;-77
2022/07/06 06:35:48;;;;;;;14.87;13.97;;;25.10;84.80;;;;;;5012727;28;20453;-75
2022/07/06 06:38:16;;;;;;;14.67;13.97;;;24.60;85.50;;;;;;5013258;28;20446;-77
2022/07/06 06:40:42;;;;;;;14.03;13.30;;;25.30;84.30;;;;;;5012877;28;20838;-75
2022/07/06 06:43:09;;;;;;;14.00;13.20;;;25.10;83.80;;;;;;5011401;28;20492;-76
2022/07/06 06:45:36;;;;;;;13.70;13.00;;;24.70;85.60;;;;;;5011390;28;20878;-77
2022/07/06 06:48:05;;;;;;;13.60;13.00;;;24.50;86.50;;;;;;5012741;28;20441;-78
2022/07/06 06:50:32;;;;;;;14.80;14.00;;;24.70;86.50;;;;;;5012670;28;20446;-77
2022/07/06 06:52:58;;;;;;;14.27;13.67;;;25.20;85.80;;;;;;5012783;28;20458;-77
2022/07/06 06:55:25;;;;;;;13.10;12.50;;;26.00;81.80;;;;;;5012584;28;20862;-78
2022/07/06 06:57:52;;;;;;;14.63;13.90;;;26.70;79.80;;;;;;5013139;28;20445;-77
2022/07/06 07:00:19;;;;;;;13.90;13.20;;;27.30;78.00;;;;;;5012967;28;20895;-77
2022/07/06 07:02:47;;;;;;;14.33;13.67;;;27.70;74.80;;;;;;5011326;28;20450;-75
2022/07/06 07:05:15;;;;;;;13.33;12.73;;;27.80;73.30;;;;;;5009483;28;20472;-76
2022/07/06 07:07:41;;;;;;;15.57;14.43;;;27.60;72.50;;;;;;4992950;28;20462;-77
2022/07/06 07:10:09;;;;;;;14.13;13.37;;;27.30;74.10;;;;;;4992821;28;20964;-74
2022/07/06 07:12:35;;;;;;;14.47;13.30;;;27.50;73.90;;;;;;4993260;28;20523;-81
2022/07/06 07:15:02;;;;;;;15.03;14.30;;;27.50;73.50;;;;;;4993321;28;20458;-75
2022/07/06 07:17:29;;;;;;;13.60;12.80;;;27.20;72.80;;;;;;4992157;28;20446;-77
2022/07/06 07:19:57;;;;;;;13.83;13.23;;;27.10;73.80;;;;;;4992054;28;20981;-78
2022/07/06 07:22:25;;;;;;;13.57;12.80;;;27.50;73.30;;;;;;4992867;28;20491;-78
2022/07/06 07:24:52;;;;;;;14.00;13.50;;;27.50;72.60;;;;;;4993653;28;20455;-78
2022/07/06 07:27:18;;;;;;;15.73;14.67;;;27.40;70.60;;;;;;4993318;28;20697;-79
2022/07/06 07:29:45;;;;;;;14.10;13.50;;;27.20;72.10;;;;;;4993062;28;20454;-77
2022/07/06 07:32:12;;;;;;;14.40;13.80;;;27.10;73.50;;;;;;4992387;28;20450;-78
2022/07/06 07:34:39;;;;;;;16.50;15.43;;;27.70;71.50;;;;;;4992077;28;20455;-77
2022/07/06 07:37:05;;;;;;;14.60;13.80;;;28.20;69.80;;;;;;4992711;28;20936;-78
2022/07/06 07:39:33;;;;;;;16.47;15.60;;;28.70;68.20;;;;;;4991923;28;20483;-77
2022/07/06 07:42:00;;;;;;;13.37;12.83;;;29.10;68.00;;;;;;4990700;28;20509;-77
2022/07/06 07:44:27;;;;;;;14.00;13.40;;;29.20;65.00;;;;;;4990928;28;21023;-78
2022/07/06 07:46:54;;;;;;;14.10;13.47;;;28.50;65.80;;;;;;4991719;28;20458;-78
2022/07/06 07:49:21;;;;;;;14.70;13.97;;;28.10;66.90;;;;;;4991223;28;20937;-78
2022/07/06 07:51:48;;;;;;;14.20;13.50;;;27.50;68.00;;;;;;4991260;28;20497;-77
2022/07/06 07:54:14;;;;;;;14.83;13.80;;;27.70;68.80;;;;;;4991098;28;20454;-78
2022/07/06 07:56:43;;;;;;;14.00;13.23;;;27.60;69.20;;;;;;4990861;28;20970;-78
2022/07/06 07:59:10;;;;;;;15.00;14.00;;;28.30;66.70;;;;;;4991257;28;20451;-77
2022/07/06 08:01:37;;;;;;;14.63;13.93;;;28.70;66.50;;;;;;4991177;28;20495;-77
2022/07/06 08:04:06;;;;;;;14.00;13.50;;;29.00;64.00;;;;;;4991267;28;20455;-78
2022/07/06 08:06:33;;;;;;;14.43;13.83;;;29.10;62.50;;;;;;4992610;28;20493;-77
2022/07/06 08:09:02;;;;;;;14.50;13.53;;;28.60;63.70;;;;;;4991101;28;20455;-77
2022/07/06 08:11:29;;;;;;;15.37;14.30;;;28.70;64.00;;;;;;4991118;28;20485;-78
2022/07/06 08:13:57;;;;;;;15.43;14.57;;;29.10;63.80;;;;;;4991021;28;20474;-78
2022/07/06 08:16:24;;;;;;;14.73;13.97;;;29.20;62.20;;;;;;5001834;28;20784;-78
2022/07/06 08:18:51;;;;;;;14.63;13.93;;;28.60;64.10;;;;;;5010296;28;20450;-78
2022/07/06 08:21:18;;;;;;;14.93;14.13;;;29.00;65.90;;;;;;5017805;28;20501;-79
2022/07/06 08:23:45;;;;;;;15.50;14.70;;;29.60;65.70;;;;;;5015664;28;20489;-78
2022/07/06 08:26:12;;;;;;;15.47;14.67;;;30.50;61.90;;;;;;5014033;28;20512;-79
2022/07/06 08:28:38;;;;;;;14.47;13.77;;;31.10;58.50;;;;;;5009833;28;20809;-79
2022/07/06 08:31:07;;;;;;;15.00;14.00;;;30.40;58.80;;;;;;5009512;28;20464;-79
2022/07/06 08:33:33;;;;;;;15.00;14.27;;;30.50;60.10;;;;;;5010121;28;20839;-80
2022/07/06 08:36:00;;;;;;;13.87;13.27;;;30.50;60.50;;;;;;5010000;28;20458;-80
2022/07/06 08:38:27;;;;;;;15.70;15.00;;;30.70;59.60;;;;;;5009907;28;20449;-79
2022/07/06 08:40:54;;;;;;;15.17;14.47;;;30.10;58.70;;;;;;5009533;28;20469;-79
2022/07/06 08:43:23;;;;;;;14.40;13.80;;;29.50;61.10;;;;;;5009649;28;20493;-79
2022/07/06 08:45:51;;;;;;;14.67;13.80;;;29.80;61.60;;;;;;5009429;28;20553;-79
2022/07/06 08:48:19;;;;;;;17.97;16.83;;;30.70;59.40;;;;;;5009563;28;20450;-79
2022/07/06 08:50:47;;;;;;;15.07;14.47;;;31.00;57.50;;;;;;5009392;28;20884;-79
2022/07/06 08:53:13;;;;;;;15.70;15.10;;;31.50;57.10;;;;;;5010608;28;20979;-79
2022/07/06 08:55:40;;;;;;;15.07;14.37;;;30.30;57.90;;;;;;5013648;28;20457;-80
2022/07/06 08:58:08;;;;;;;15.80;14.80;;;30.10;59.60;;;;;;5015073;28;20491;-79
2022/07/06 09:00:36;;;;;;;15.07;14.37;;;30.40;59.20;;;;;;5015101;28;20453;-79
2022/07/06 09:03:04;;;;;;;14.97;14.27;;;31.00;58.50;;;;;;5013438;28;20589;-74
